Terminal Aerodrome Forecast
Issued by NWS Mobile, AL

Home | Current Version | Previous Version | Text Only | Print | Product List | Glossary On
Versions: 1 2 3 4 5 6 7 8 9 10 11 12 13 14 15 16 17 18 19 20 21 22 23 24 25 26 27 28 29 30 31
000
FTUS44 KMOB 301132
TAFPNS
TAF
KPNS 301132Z 3012/3112 05005KT P6SM FEW015 SCT250
     FM301500 14008KT P6SM SCT030 SCT250
     FM301900 18009KT P6SM SCT050 SCT250=

USA.gov is the U.S. government's official web portal to all federal, state and local government web resources and services.